createdAt,value
2023-04-07T00:00:13.374Z,9.57
2023-04-07T00:03:07.174Z,9.35
2023-04-07T00:05:37.089Z,9.98
2023-04-07T00:08:06.646Z,9.52
2023-04-07T00:10:40.248Z,9.43
2023-04-07T00:13:09.491Z,10.70
2023-04-07T00:15:40.583Z,10.82
2023-04-07T00:18:09.885Z,9.70
2023-04-07T00:20:39.481Z,9.65
2023-04-07T00:23:08.597Z,11.98
2023-04-07T00:25:37.978Z,8.98
2023-04-07T00:28:07.258Z,12.20
2023-04-07T00:30:36.613Z,11.25
2023-04-07T00:33:09.741Z,10.52
2023-04-07T00:35:39.511Z,11.27
2023-04-07T00:38:08.638Z,11.07
2023-04-07T00:40:38.145Z,12.63
2023-04-07T00:43:07.317Z,10.68
2023-04-07T00:45:37.840Z,11.02
2023-04-07T00:48:09.404Z,11.23
2023-04-07T00:50:38.818Z,12.65
2023-04-07T00:53:08.172Z,10.88
2023-04-07T00:55:37.707Z,12.02
2023-04-07T00:58:06.946Z,13.02
2023-04-07T01:00:42.605Z,11.88
2023-04-07T01:03:19.461Z,11.43
2023-04-07T01:05:57.088Z,12.30
2023-04-07T01:08:34.506Z,13.02
2023-04-07T01:11:14.804Z,11.93
2023-04-07T01:13:49.563Z,13.00
2023-04-07T01:16:47.084Z,13.13
2023-04-07T01:19:33.457Z,13.98
2023-04-07T01:22:05.532Z,11.65
2023-04-07T01:25:02.591Z,12.65
2023-04-07T01:27:44.295Z,12.68
2023-04-07T01:30:16.726Z,10.80
2023-04-07T01:32:51.624Z,14.00
2023-04-07T01:35:22.172Z,12.05
2023-04-07T01:37:53.755Z,11.77
2023-04-07T01:40:23.984Z,12.77
2023-04-07T01:42:54.463Z,11.43
2023-04-07T01:45:25.913Z,11.02
2023-04-07T01:47:56.426Z,12.02
2023-04-07T01:52:55.972Z,11.13
2023-04-07T01:58:07.118Z,12.93
2023-04-07T02:00:39.614Z,12.10
2023-04-07T02:03:21.800Z,13.02
2023-04-07T02:05:55.961Z,12.90
2023-04-07T02:08:31.882Z,12.00
2023-04-07T02:11:05.019Z,12.77
2023-04-07T02:13:40.350Z,12.48
2023-04-07T02:16:15.798Z,12.27
2023-04-07T02:18:47.863Z,12.30
2023-04-07T02:21:18.556Z,12.65
2023-04-07T02:23:49.022Z,14.18
2023-04-07T02:26:18.292Z,11.63
2023-04-07T02:28:47.677Z,10.30
2023-04-07T02:31:27.322Z,11.30
2023-04-07T02:33:56.923Z,11.63
2023-04-07T02:36:26.490Z,12.20
2023-04-07T02:41:25.035Z,10.98
2023-04-07T02:43:55.431Z,10.18
2023-04-07T02:46:26.364Z,12.18
2023-04-07T02:48:55.773Z,11.05
2023-04-07T02:51:24.998Z,12.93
2023-04-07T02:53:54.557Z,12.50
2023-04-07T02:56:23.935Z,12.25
2023-04-07T02:58:53.354Z,10.88
2023-04-07T03:01:23.035Z,13.00
2023-04-07T03:03:55.829Z,12.50
2023-04-07T03:06:28.207Z,12.38
2023-04-07T03:09:09.011Z,12.20
2023-04-07T03:11:38.502Z,12.95
2023-04-07T03:14:08.292Z,11.90
2023-04-07T03:16:44.247Z,13.18
2023-04-07T03:19:17.394Z,13.13
2023-04-07T03:21:49.885Z,12.98
2023-04-07T03:24:19.394Z,13.27
2023-04-07T03:29:28.069Z,12.10
2023-04-07T03:31:57.646Z,13.75
2023-04-07T03:34:29.326Z,14.35
2023-04-07T03:37:00.615Z,11.85
2023-04-07T03:39:32.659Z,12.00
2023-04-07T03:42:03.432Z,11.23
2023-04-07T03:44:35.277Z,13.65
2023-04-07T03:47:04.496Z,15.02
2023-04-07T03:49:38.397Z,13.55
2023-04-07T03:52:08.743Z,15.05
2023-04-07T03:54:38.769Z,13.77
2023-04-07T03:57:08.219Z,14.40
2023-04-07T03:59:43.632Z,14.48
2023-04-07T04:02:13.177Z,14.38
2023-04-07T04:04:44.399Z,14.63
2023-04-07T04:07:14.590Z,13.40
2023-04-07T04:09:47.989Z,13.63
2023-04-07T04:12:17.539Z,15.32
2023-04-07T04:15:03.192Z,14.82
2023-04-07T04:17:34.123Z,16.65
2023-04-07T04:20:07.917Z,17.48
2023-04-07T04:22:45.440Z,14.20
2023-04-07T04:25:15.231Z,17.20
2023-04-07T04:27:49.505Z,17.85
2023-04-07T04:30:28.440Z,16.55
2023-04-07T04:33:03.201Z,16.55
2023-04-07T04:36:07.843Z,15.73
2023-04-07T04:38:37.274Z,14.02
2023-04-07T04:41:14.613Z,12.45
2023-04-07T04:43:45.202Z,14.30
2023-04-07T04:46:19.527Z,15.40
2023-04-07T04:48:51.620Z,13.63
2023-04-07T04:51:24.195Z,11.60
2023-04-07T04:53:58.619Z,11.15
2023-04-07T04:56:29.653Z,13.02
2023-04-07T04:58:59.004Z,12.35
2023-04-07T05:01:40.634Z,13.57
2023-04-07T05:04:14.136Z,13.68
2023-04-07T05:06:52.326Z,11.57
2023-04-07T05:09:24.796Z,12.90
2023-04-07T05:11:54.240Z,10.75
2023-04-07T05:14:24.454Z,12.43
2023-04-07T05:17:05.334Z,12.48
2023-04-07T05:22:13.433Z,11.50
2023-04-07T05:24:47.736Z,12.10
2023-04-07T05:27:17.362Z,13.13
2023-04-07T05:29:49.718Z,13.73
2023-04-07T05:32:29.621Z,12.77
2023-04-07T05:35:01.124Z,13.48
2023-04-07T05:37:38.812Z,9.70
2023-04-07T05:40:10.414Z,13.82
2023-04-07T05:42:40.642Z,14.27
2023-04-07T05:45:11.599Z,12.77
2023-04-07T05:47:44.553Z,13.80
2023-04-07T05:50:14.821Z,15.10
2023-04-07T05:52:48.656Z,14.98
2023-04-07T05:55:23.679Z,14.15
2023-04-07T05:57:54.932Z,13.30
2023-04-07T06:00:27.493Z,12.73
2023-04-07T06:03:07.932Z,12.38
2023-04-07T06:05:49.124Z,15.82
2023-04-07T06:08:23.163Z,12.48
2023-04-07T06:10:52.597Z,13.73
2023-04-07T06:13:21.957Z,14.07
2023-04-07T06:15:51.245Z,14.75
2023-04-07T06:20:49.744Z,13.90
2023-04-07T06:23:23.654Z,14.65
2023-04-07T06:25:53.352Z,13.73
2023-04-07T06:30:51.838Z,13.23
2023-04-07T06:33:25.759Z,11.27
2023-04-07T06:35:55.027Z,11.88
2023-04-07T06:38:25.996Z,13.25
2023-04-07T06:40:55.168Z,12.02
2023-04-07T06:43:24.704Z,13.13
2023-04-07T06:45:59.904Z,11.45
2023-04-07T06:48:29.411Z,13.05
2023-04-07T06:50:59.146Z,15.18
2023-04-07T06:56:09.441Z,11.57
2023-04-07T06:58:39.657Z,14.13
2023-04-07T07:03:38.094Z,12.90
2023-04-07T07:06:07.595Z,14.07
2023-04-07T07:08:38.528Z,14.55
2023-04-07T07:11:07.931Z,14.00
2023-04-07T07:13:37.299Z,15.18
2023-04-07T07:16:07.338Z,15.48
2023-04-07T07:18:38.045Z,16.17
2023-04-07T07:21:07.412Z,14.25
2023-04-07T07:23:41.006Z,13.70
2023-04-07T07:26:10.252Z,16.65
2023-04-07T07:28:39.776Z,15.18
2023-04-07T07:31:15.236Z,16.27
2023-04-07T07:33:46.517Z,16.25
2023-04-07T07:36:16.334Z,17.92
2023-04-07T07:41:16.072Z,15.80
2023-04-07T07:43:45.636Z,16.17
2023-04-07T07:46:15.172Z,15.02
2023-04-07T07:48:44.807Z,16.67
2023-04-07T07:51:13.982Z,15.02
2023-04-07T07:53:43.433Z,13.18
2023-04-07T07:56:14.229Z,12.38
2023-04-07T07:58:43.706Z,15.50
2023-04-07T08:01:12.840Z,14.88
2023-04-07T08:03:42.482Z,14.07
2023-04-07T08:06:12.003Z,14.93
2023-04-07T08:11:10.490Z,15.35
2023-04-07T08:13:45.525Z,13.30
2023-04-07T08:16:15.038Z,15.32
2023-04-07T08:18:44.550Z,12.85
2023-04-07T08:21:14.127Z,13.27
2023-04-07T08:23:43.710Z,14.20
2023-04-07T08:26:12.926Z,13.63
2023-04-07T08:28:43.790Z,12.02
2023-04-07T08:31:13.040Z,14.52
2023-04-07T08:33:42.541Z,12.93
2023-04-07T08:36:12.218Z,12.70
2023-04-07T08:41:13.662Z,9.75
2023-04-07T08:43:47.157Z,13.05
2023-04-07T08:46:17.381Z,13.02
2023-04-07T08:48:50.911Z,9.63
2023-04-07T08:51:28.710Z,12.18
2023-04-07T08:54:06.704Z,12.50
2023-04-07T08:56:36.107Z,12.98
2023-04-07T09:01:38.368Z,13.93
2023-04-07T09:04:08.703Z,12.55
2023-04-07T09:06:38.977Z,14.45
2023-04-07T09:09:08.476Z,12.65
2023-04-07T09:11:38.915Z,14.38
2023-04-07T09:14:11.979Z,11.98
2023-04-07T09:16:41.479Z,11.40
2023-04-07T09:21:51.308Z,10.68
2023-04-07T09:24:25.145Z,14.10
2023-04-07T09:27:10.110Z,14.02
2023-04-07T09:29:43.797Z,12.93
2023-04-07T09:32:15.623Z,10.50
2023-04-07T09:34:45.226Z,14.40
2023-04-07T09:39:54.162Z,12.55
2023-04-07T09:42:23.598Z,11.93
2023-04-07T09:47:29.232Z,12.65
2023-04-07T09:49:59.886Z,12.32
2023-04-07T09:52:53.865Z,8.98
2023-04-07T09:55:24.834Z,9.80
2023-04-07T09:57:56.744Z,11.13
2023-04-07T10:00:28.178Z,11.10
2023-04-07T10:02:58.225Z,10.50
2023-04-07T10:05:28.940Z,9.77
2023-04-07T10:07:58.318Z,14.63
2023-04-07T10:10:28.811Z,11.95
2023-04-07T10:13:00.203Z,17.90
2023-04-07T10:15:31.693Z,25.45
2023-04-07T10:18:04.397Z,11.43
2023-04-07T10:20:34.386Z,10.35
2023-04-07T10:25:37.225Z,14.65
2023-04-07T10:28:09.775Z,13.18
2023-04-07T10:30:41.892Z,13.63
2023-04-07T10:33:11.244Z,12.85
2023-04-07T10:36:05.026Z,13.10
2023-04-07T10:38:34.696Z,13.35
2023-04-07T10:44:03.012Z,15.88
2023-04-07T10:47:11.238Z,14.15
2023-04-07T10:50:02.133Z,14.65
2023-04-07T10:52:32.299Z,13.60
2023-04-07T10:55:35.849Z,14.20
2023-04-07T10:58:19.801Z,13.77
2023-04-07T11:01:22.503Z,14.80
2023-04-07T11:04:02.302Z,14.50
2023-04-07T11:06:33.213Z,14.55
2023-04-07T11:09:02.763Z,14.43
2023-04-07T11:11:39.998Z,16.58
2023-04-07T11:14:09.490Z,12.13
2023-04-07T11:16:41.660Z,13.65
2023-04-07T11:19:11.784Z,12.07
2023-04-07T11:21:42.728Z,13.02
2023-04-07T11:24:12.408Z,14.00
2023-04-07T11:26:43.829Z,13.15
2023-04-07T11:29:13.856Z,11.32
2023-04-07T11:34:18.223Z,11.68
2023-04-07T11:36:49.071Z,12.32
2023-04-07T11:39:22.756Z,11.48
2023-04-07T11:41:52.827Z,11.25
2023-04-07T11:44:22.221Z,11.70
2023-04-07T11:46:58.661Z,12.10
2023-04-07T11:49:29.412Z,12.55
2023-04-07T11:52:04.443Z,11.13
2023-04-07T11:54:42.877Z,11.57
2023-04-07T11:57:13.173Z,13.82
2023-04-07T11:59:43.311Z,11.38
2023-04-07T12:02:14.743Z,13.55
2023-04-07T12:04:58.498Z,9.30
2023-04-07T12:07:29.496Z,10.32
2023-04-07T12:09:59.064Z,12.38
2023-04-07T12:12:30.861Z,10.43
2023-04-07T12:15:01.884Z,10.48
2023-04-07T12:17:33.680Z,10.23
2023-04-07T12:20:03.303Z,10.90
2023-04-07T12:22:35.155Z,9.70
2023-04-07T12:25:04.774Z,9.93
2023-04-07T12:27:42.637Z,10.63
2023-04-07T12:30:14.043Z,10.18
2023-04-07T12:32:44.488Z,10.93
2023-04-07T12:35:14.124Z,7.53
2023-04-07T12:40:16.219Z,9.13
2023-04-07T12:42:45.476Z,27.35
2023-04-07T12:47:44.273Z,9.02
2023-04-07T12:50:13.737Z,9.63
2023-04-07T12:52:44.346Z,9.30
2023-04-07T12:55:14.965Z,9.85
2023-04-07T12:57:44.255Z,9.38
2023-04-07T13:02:43.574Z,9.70
2023-04-07T13:05:13.138Z,16.98
2023-04-07T13:07:42.407Z,9.55
2023-04-07T13:10:13.402Z,8.95
2023-04-07T13:12:42.717Z,9.18
2023-04-07T13:17:41.470Z,9.82
2023-04-07T13:20:11.541Z,8.77
2023-04-07T13:22:49.080Z,8.82
2023-04-07T13:25:22.963Z,9.15
2023-04-07T13:27:52.309Z,9.35
2023-04-07T13:30:22.852Z,9.30
2023-04-07T13:32:52.297Z,9.52
2023-04-07T13:37:52.078Z,12.38
2023-04-07T13:40:23.512Z,9.70
2023-04-07T13:42:52.738Z,11.63
2023-04-07T13:45:23.486Z,9.82
2023-04-07T13:47:53.903Z,8.27
2023-04-07T13:50:25.195Z,8.45
2023-04-07T13:55:25.720Z,9.40
2023-04-07T13:57:57.170Z,8.52
2023-04-07T14:00:27.080Z,8.43
2023-04-07T14:02:57.236Z,8.68
2023-04-07T14:05:27.028Z,8.82
2023-04-07T14:07:56.388Z,8.77
2023-04-07T14:10:27.432Z,9.63
2023-04-07T14:12:57.151Z,10.45
2023-04-07T14:15:26.854Z,8.93
2023-04-07T14:20:27.169Z,8.70
2023-04-07T14:22:56.891Z,9.90
2023-04-07T14:25:27.636Z,8.40
2023-04-07T14:27:57.598Z,10.05
2023-04-07T14:30:27.215Z,8.38
2023-04-07T14:37:55.630Z,7.82
2023-04-07T14:40:26.853Z,8.02
2023-04-07T14:45:28.886Z,8.35
2023-04-07T14:50:28.082Z,8.80
2023-04-07T14:52:59.849Z,9.07
2023-04-07T14:55:32.034Z,8.27
2023-04-07T14:58:01.481Z,9.07
2023-04-07T15:00:31.225Z,7.93
2023-04-07T15:03:00.640Z,8.63
2023-04-07T15:05:31.582Z,9.65
2023-04-07T15:08:00.904Z,10.35
2023-04-07T15:13:03.317Z,9.77
2023-04-07T15:15:34.205Z,10.45
2023-04-07T15:18:04.387Z,8.57
2023-04-07T15:20:34.084Z,10.43
2023-04-07T15:23:03.558Z,12.10
2023-04-07T15:25:34.337Z,10.13
2023-04-07T15:28:03.797Z,9.20
2023-04-07T15:30:35.851Z,9.35
2023-04-07T15:33:06.501Z,9.20
2023-04-07T15:35:36.409Z,9.45
2023-04-07T15:38:05.630Z,10.23
2023-04-07T15:40:40.192Z,10.90
2023-04-07T15:43:11.157Z,9.63
2023-04-07T15:45:43.754Z,9.70
2023-04-07T15:48:13.565Z,9.07
2023-04-07T15:50:43.239Z,9.75
2023-04-07T15:53:12.590Z,8.88
2023-04-07T15:58:13.781Z,9.68
2023-04-07T16:00:43.692Z,10.10
2023-04-07T16:03:13.105Z,9.02
2023-04-07T16:05:42.746Z,9.63
2023-04-07T16:08:13.721Z,7.40
2023-04-07T16:10:44.817Z,8.40
2023-04-07T16:13:14.076Z,8.27
2023-04-07T16:15:43.609Z,8.10
2023-04-07T16:18:13.174Z,11.07
2023-04-07T16:20:43.172Z,8.18
2023-04-07T16:23:12.711Z,9.23
2023-04-07T16:25:43.832Z,10.35
2023-04-07T16:28:13.032Z,8.50
2023-04-07T16:30:44.009Z,8.80
2023-04-07T16:33:13.196Z,8.80
2023-04-07T16:35:42.832Z,8.48
2023-04-07T16:38:12.206Z,7.95
2023-04-07T16:40:56.814Z,9.60
2023-04-07T16:43:33.435Z,10.48
2023-04-07T16:46:06.358Z,10.23
2023-04-07T16:48:36.132Z,8.98
2023-04-07T16:51:05.870Z,8.98
2023-04-07T16:56:05.668Z,8.75
2023-04-07T16:58:34.871Z,7.03
2023-04-07T17:03:36.008Z,9.05
2023-04-07T17:06:06.221Z,9.63
2023-04-07T17:08:36.064Z,8.50
2023-04-07T17:11:10.235Z,9.02
2023-04-07T17:13:40.299Z,9.63
2023-04-07T17:16:14.982Z,10.57
2023-04-07T17:18:44.230Z,10.07
2023-04-07T17:23:43.019Z,8.75
2023-04-07T17:26:13.869Z,29.67
2023-04-07T17:28:43.267Z,12.32
2023-04-07T17:31:14.687Z,9.43
2023-04-07T17:33:43.893Z,10.02
2023-04-07T17:36:15.427Z,9.40
2023-04-07T17:38:45.665Z,9.35
2023-04-07T17:41:17.275Z,9.63
2023-04-07T17:43:46.883Z,10.40
2023-04-07T17:46:16.627Z,12.43
2023-04-07T17:48:45.841Z,9.27
2023-04-07T17:53:46.021Z,9.82
2023-04-07T17:56:17.245Z,11.90
2023-04-07T17:58:46.706Z,9.57
2023-04-07T18:01:16.936Z,12.50
2023-04-07T18:03:47.544Z,8.82
2023-04-07T18:06:18.214Z,9.05
2023-04-07T18:08:48.832Z,8.60
2023-04-07T18:11:20.210Z,8.98
2023-04-07T18:13:49.550Z,8.73
2023-04-07T18:16:22.148Z,10.43
2023-04-07T18:18:52.815Z,9.50
2023-04-07T18:21:22.358Z,8.02
2023-04-07T18:23:52.074Z,9.07
2023-04-07T18:26:23.710Z,7.72
2023-04-07T18:28:53.257Z,7.95
2023-04-07T18:31:23.240Z,8.77
2023-04-07T18:33:52.536Z,10.65
2023-04-07T18:36:25.622Z,8.70
2023-04-07T18:38:54.983Z,8.30
2023-04-07T18:41:27.227Z,8.82
2023-04-07T18:43:56.528Z,10.00
2023-04-07T18:46:25.888Z,9.18
2023-04-07T18:48:55.742Z,9.25
2023-04-07T18:51:25.075Z,9.80
2023-04-07T18:53:54.133Z,9.60
2023-04-07T18:56:27.333Z,10.02
2023-04-07T18:58:57.191Z,9.57
2023-04-07T19:01:27.722Z,9.23
2023-04-07T19:03:57.695Z,10.30
2023-04-07T19:06:28.073Z,8.75
2023-04-07T19:08:57.843Z,8.27
2023-04-07T19:11:29.204Z,10.95
2023-04-07T19:13:58.552Z,7.97
2023-04-07T19:16:27.979Z,9.20
2023-04-07T19:18:57.253Z,9.13
2023-04-07T19:23:56.910Z,9.45
2023-04-07T19:26:28.064Z,9.63
2023-04-07T19:28:58.302Z,9.20
2023-04-07T19:31:28.287Z,8.75
2023-04-07T19:36:28.394Z,9.68
2023-04-07T19:39:01.037Z,9.35
2023-04-07T19:41:33.429Z,10.38
2023-04-07T19:44:03.251Z,9.75
2023-04-07T19:49:03.519Z,8.50
2023-04-07T19:54:03.806Z,10.10
2023-04-07T19:56:36.229Z,8.90
2023-04-07T19:59:10.518Z,9.40
2023-04-07T20:01:45.660Z,7.97
2023-04-07T20:04:17.266Z,10.73
2023-04-07T20:06:51.319Z,10.63
2023-04-07T20:09:22.843Z,16.38
2023-04-07T20:12:01.914Z,25.48
2023-04-07T20:14:34.233Z,31.10
2023-04-07T20:17:04.043Z,17.50
2023-04-07T20:19:33.281Z,17.25
2023-04-07T20:22:02.875Z,15.82
2023-04-07T20:24:32.142Z,39.83
2023-04-07T20:29:32.289Z,19.08
2023-04-07T20:34:30.722Z,16.80
2023-04-07T20:37:00.190Z,14.77
2023-04-07T20:39:29.344Z,11.80
2023-04-07T20:44:31.426Z,9.68
2023-04-07T20:47:01.187Z,11.10
2023-04-07T20:49:30.348Z,11.75
2023-04-07T20:51:59.928Z,11.18
2023-04-07T20:54:29.898Z,11.10
2023-04-07T20:57:00.655Z,12.23
2023-04-07T20:59:32.697Z,11.48
2023-04-07T21:02:02.286Z,10.63
2023-04-07T21:04:31.748Z,11.38
2023-04-07T21:07:01.361Z,10.23
2023-04-07T21:09:30.426Z,11.93
2023-04-07T21:12:02.057Z,10.55
2023-04-07T21:14:32.800Z,10.40
2023-04-07T21:17:02.409Z,11.38
2023-04-07T21:19:32.178Z,10.52
2023-04-07T21:22:01.596Z,11.57
2023-04-07T21:24:32.124Z,10.30
2023-04-07T21:27:02.103Z,10.55
2023-04-07T21:29:34.021Z,10.80
2023-04-07T21:32:03.548Z,10.18
2023-04-07T21:34:32.586Z,10.32
2023-04-07T21:39:31.325Z,12.05
2023-04-07T21:42:02.356Z,15.52
2023-04-07T21:44:32.935Z,13.90
2023-04-07T21:47:03.820Z,14.32
2023-04-07T21:49:32.980Z,14.52
2023-04-07T21:52:02.371Z,15.90
2023-04-07T21:54:31.620Z,15.57
2023-04-07T21:57:01.403Z,15.13
2023-04-07T22:02:01.317Z,13.27
2023-04-07T22:04:30.815Z,15.70
2023-04-07T22:09:29.920Z,18.55
2023-04-07T22:11:59.294Z,16.33
2023-04-07T22:14:29.277Z,17.40
2023-04-07T22:17:00.658Z,17.00
2023-04-07T22:19:29.846Z,19.20
2023-04-07T22:21:59.223Z,19.70
2023-04-07T22:24:28.489Z,18.88
2023-04-07T22:26:58.862Z,18.85
2023-04-07T22:29:29.474Z,19.80
2023-04-07T22:32:00.460Z,18.05
2023-04-07T22:34:29.733Z,16.38
2023-04-07T22:36:59.063Z,16.95
2023-04-07T22:39:28.237Z,17.38
2023-04-07T22:41:57.588Z,17.92
2023-04-07T22:44:26.773Z,20.70
2023-04-07T22:49:28.238Z,14.35
2023-04-07T22:51:57.730Z,13.95
2023-04-07T22:54:26.820Z,15.52
2023-04-07T22:56:56.825Z,15.40
2023-04-07T23:01:57.706Z,16.23
2023-04-07T23:04:28.669Z,15.27
2023-04-07T23:06:58.119Z,16.13
2023-04-07T23:09:27.668Z,18.98
2023-04-07T23:11:57.950Z,20.80
2023-04-07T23:14:27.271Z,17.17
2023-04-07T23:16:57.897Z,18.30
2023-04-07T23:19:28.535Z,16.20
2023-04-07T23:21:58.001Z,16.60
2023-04-07T23:24:27.273Z,15.80
2023-04-07T23:26:56.986Z,16.33
2023-04-07T23:29:26.203Z,16.83
2023-04-07T23:31:55.628Z,16.13
2023-04-07T23:34:25.205Z,15.95
2023-04-07T23:39:24.777Z,15.73
2023-04-07T23:41:54.238Z,14.65
2023-04-07T23:44:23.338Z,14.10
2023-04-07T23:46:52.774Z,14.80
2023-04-07T23:49:22.266Z,15.85
2023-04-07T23:51:52.042Z,15.77
2023-04-07T23:54:22.614Z,18.25
2023-04-07T23:56:52.055Z,18.40
2023-04-07T23:59:21.252Z,18.00
